sensor_id;sensor_type;location;lat;lon;timestamp;pressure;altitude;pressure_sealevel;temperature;humidity
17781;BME280;8498;52.516;13.790;2022-10-16T00:05:07;100613.06;;;17.17;87.29
17781;BME280;8498;52.516;13.790;2022-10-16T00:10:29;100624.53;;;17.19;87.35
17781;BME280;8498;52.516;13.790;2022-10-16T00:15:55;100625.06;;;17.23;87.46
17781;BME280;8498;52.516;13.790;2022-10-16T00:21:20;100636.94;;;17.20;89.03
17781;BME280;8498;52.516;13.790;2022-10-16T00:26:43;100641.00;;;17.24;89.74
17781;BME280;8498;52.516;13.790;2022-10-16T00:32:06;100647.22;;;17.25;90.61
17781;BME280;8498;52.516;13.790;2022-10-16T00:37:29;100650.53;;;17.19;92.04
17781;BME280;8498;52.516;13.790;2022-10-16T00:42:51;100652.59;;;17.25;91.73
17781;BME280;8498;52.516;13.790;2022-10-16T00:48:13;100666.44;;;17.30;91.62
17781;BME280;8498;52.516;13.790;2022-10-16T00:53:36;100667.53;;;17.37;91.36
17781;BME280;8498;52.516;13.790;2022-10-16T00:58:59;100650.84;;;17.43;90.95
17781;BME280;8498;52.516;13.790;2022-10-16T01:04:25;100660.56;;;17.44;90.81
17781;BME280;8498;52.516;13.790;2022-10-16T01:10:44;100660.41;;;17.46;90.74
17781;BME280;8498;52.516;13.790;2022-10-16T01:15:53;100663.81;;;17.48;91.03
17781;BME280;8498;52.516;13.790;2022-10-16T01:21:24;100666.34;;;17.49;90.92
17781;BME280;8498;52.516;13.790;2022-10-16T01:32:38;100659.84;;;17.52;90.60
17781;BME280;8498;52.516;13.790;2022-10-16T01:38:24;100681.31;;;17.52;90.64
17781;BME280;8498;52.516;13.790;2022-10-16T01:44:06;100680.75;;;17.48;90.66
17781;BME280;8498;52.516;13.790;2022-10-16T01:49:33;100694.34;;;17.47;90.53
17781;BME280;8498;52.516;13.790;2022-10-16T01:54:58;100686.41;;;17.45;90.78
17781;BME280;8498;52.516;13.790;2022-10-16T02:00:22;100692.50;;;17.47;90.58
17781;BME280;8498;52.516;13.790;2022-10-16T02:05:54;100685.16;;;17.49;90.27
17781;BME280;8498;52.516;13.790;2022-10-16T02:11:17;100695.47;;;17.54;90.24
17781;BME280;8498;52.516;13.790;2022-10-16T02:16:44;100710.16;;;17.50;90.58
17781;BME280;8498;52.516;13.790;2022-10-16T02:22:10;100701.97;;;17.51;90.98
17781;BME280;8498;52.516;13.790;2022-10-16T02:33:21;100720.06;;;17.49;91.03
17781;BME280;8498;52.516;13.790;2022-10-16T02:38:44;100711.00;;;17.50;91.18
17781;BME280;8498;52.516;13.790;2022-10-16T02:44:07;100705.34;;;17.53;91.23
17781;BME280;8498;52.516;13.790;2022-10-16T02:49:30;100714.09;;;17.55;91.12
17781;BME280;8498;52.516;13.790;2022-10-16T02:54:52;100722.56;;;17.60;90.18
17781;BME280;8498;52.516;13.790;2022-10-16T03:00:17;100723.69;;;17.58;90.22
17781;BME280;8498;52.516;13.790;2022-10-16T03:05:39;100721.84;;;17.58;89.81
17781;BME280;8498;52.516;13.790;2022-10-16T03:11:02;100737.97;;;17.58;89.22
17781;BME280;8498;52.516;13.790;2022-10-16T03:16:24;100739.97;;;17.56;88.60
17781;BME280;8498;52.516;13.790;2022-10-16T03:21:46;100748.00;;;17.56;88.65
17781;BME280;8498;52.516;13.790;2022-10-16T03:27:09;100743.50;;;17.57;88.32
17781;BME280;8498;52.516;13.790;2022-10-16T03:32:31;100754.00;;;17.50;88.64
17781;BME280;8498;52.516;13.790;2022-10-16T03:37:54;100750.03;;;17.45;89.21
17781;BME280;8498;52.516;13.790;2022-10-16T03:43:16;100757.25;;;17.44;88.82
17781;BME280;8498;52.516;13.790;2022-10-16T03:48:38;100767.31;;;17.42;88.94
17781;BME280;8498;52.516;13.790;2022-10-16T03:54:01;100774.38;;;17.43;89.37
17781;BME280;8498;52.516;13.790;2022-10-16T03:59:24;100774.38;;;17.43;89.03
17781;BME280;8498;52.516;13.790;2022-10-16T04:04:46;100790.50;;;17.43;88.94
17781;BME280;8498;52.516;13.790;2022-10-16T04:10:09;100802.22;;;17.42;89.09
17781;BME280;8498;52.516;13.790;2022-10-16T04:15:32;100799.69;;;17.41;88.96
17781;BME280;8498;52.516;13.790;2022-10-16T04:20:54;100801.25;;;17.43;89.07
17781;BME280;8498;52.516;13.790;2022-10-16T04:26:17;100807.28;;;17.45;88.74
17781;BME280;8498;52.516;13.790;2022-10-16T04:31:39;100811.81;;;17.45;88.33
17781;BME280;8498;52.516;13.790;2022-10-16T04:37:02;100808.59;;;17.41;88.83
17781;BME280;8498;52.516;13.790;2022-10-16T04:42:24;100813.63;;;17.44;88.10
17781;BME280;8498;52.516;13.790;2022-10-16T04:47:46;100811.28;;;17.41;87.86
17781;BME280;8498;52.516;13.790;2022-10-16T04:53:09;100804.34;;;17.39;88.09
17781;BME280;8498;52.516;13.790;2022-10-16T04:58:31;100802.09;;;17.34;87.61
17781;BME280;8498;52.516;13.790;2022-10-16T05:03:53;100816.94;;;17.29;87.35
17781;BME280;8498;52.516;13.790;2022-10-16T05:09:16;100812.31;;;17.21;87.54
17781;BME280;8498;52.516;13.790;2022-10-16T05:14:38;100808.78;;;17.11;87.27
17781;BME280;8498;52.516;13.790;2022-10-16T05:20:00;100807.09;;;17.10;87.25
17781;BME280;8498;52.516;13.790;2022-10-16T05:25:23;100829.56;;;16.99;86.98
17781;BME280;8498;52.516;13.790;2022-10-16T05:30:46;100833.81;;;16.92;86.86
17781;BME280;8498;52.516;13.790;2022-10-16T05:36:09;100853.84;;;16.78;87.13
17781;BME280;8498;52.516;13.790;2022-10-16T05:41:31;100857.50;;;16.68;87.35
17781;BME280;8498;52.516;13.790;2022-10-16T05:46:53;100839.13;;;16.63;87.82
17781;BME280;8498;52.516;13.790;2022-10-16T05:52:16;100835.47;;;16.64;88.47
17781;BME280;8498;52.516;13.790;2022-10-16T05:57:38;100840.56;;;16.67;87.93
17781;BME280;8498;52.516;13.790;2022-10-16T06:03:03;100863.72;;;16.68;88.05
17781;BME280;8498;52.516;13.790;2022-10-16T06:08:26;100868.38;;;16.66;88.22
17781;BME280;8498;52.516;13.790;2022-10-16T06:13:50;100871.06;;;16.66;88.42
17781;BME280;8498;52.516;13.790;2022-10-16T06:19:12;100869.94;;;16.69;88.23
17781;BME280;8498;52.516;13.790;2022-10-16T06:24:35;100877.28;;;16.67;88.05
17781;BME280;8498;52.516;13.790;2022-10-16T06:29:57;100891.25;;;16.70;88.59
17781;BME280;8498;52.516;13.790;2022-10-16T06:35:19;100886.03;;;16.78;88.71
17781;BME280;8498;52.516;13.790;2022-10-16T06:40:42;100897.06;;;16.85;88.64
17781;BME280;8498;52.516;13.790;2022-10-16T06:46:05;100889.00;;;16.95;88.01
17781;BME280;8498;52.516;13.790;2022-10-16T06:51:29;100879.56;;;17.00;88.37
17781;BME280;8498;52.516;13.790;2022-10-16T06:56:54;100909.50;;;17.05;89.96
17781;BME280;8498;52.516;13.790;2022-10-16T07:02:16;100927.88;;;17.10;90.77
17781;BME280;8498;52.516;13.790;2022-10-16T07:07:38;100923.09;;;17.23;91.17
17781;BME280;8498;52.516;13.790;2022-10-16T07:13:01;100921.09;;;17.35;91.12
17781;BME280;8498;52.516;13.790;2022-10-16T07:18:24;100936.50;;;17.42;92.16
17781;BME280;8498;52.516;13.790;2022-10-16T07:23:53;100933.94;;;17.50;92.20
17781;BME280;8498;52.516;13.790;2022-10-16T07:29:18;100957.28;;;17.59;92.67
17781;BME280;8498;52.516;13.790;2022-10-16T07:34:42;100949.09;;;17.71;92.78
17781;BME280;8498;52.516;13.790;2022-10-16T07:40:05;100951.72;;;17.90;91.95
17781;BME280;8498;52.516;13.790;2022-10-16T07:45:27;100977.19;;;18.05;91.96
17781;BME280;8498;52.516;13.790;2022-10-16T07:50:49;100952.50;;;18.19;91.73
17781;BME280;8498;52.516;13.790;2022-10-16T07:56:13;100948.63;;;18.31;90.86
17781;BME280;8498;52.516;13.790;2022-10-16T08:01:35;100958.50;;;18.41;90.06
17781;BME280;8498;52.516;13.790;2022-10-16T08:06:57;100948.88;;;18.48;89.98
17781;BME280;8498;52.516;13.790;2022-10-16T08:12:20;100950.53;;;18.49;89.96
17781;BME280;8498;52.516;13.790;2022-10-16T08:17:42;100957.44;;;18.61;89.24
17781;BME280;8498;52.516;13.790;2022-10-16T08:23:05;100963.63;;;18.71;88.79
17781;BME280;8498;52.516;13.790;2022-10-16T08:28:29;100985.25;;;18.79;88.02
17781;BME280;8498;52.516;13.790;2022-10-16T08:33:51;100987.34;;;18.85;87.98
17781;BME280;8498;52.516;13.790;2022-10-16T08:39:15;100976.38;;;18.96;87.44
17781;BME280;8498;52.516;13.790;2022-10-16T08:50:27;101000.63;;;19.14;87.51
17781;BME280;8498;52.516;13.790;2022-10-16T08:55:51;100996.88;;;19.25;86.89
17781;BME280;8498;52.516;13.790;2022-10-16T09:01:17;100987.16;;;19.32;86.14
17781;BME280;8498;52.516;13.790;2022-10-16T09:12:17;100981.41;;;19.44;85.38
17781;BME280;8498;52.516;13.790;2022-10-16T09:28:37;101011.81;;;19.90;82.17
17781;BME280;8498;52.516;13.790;2022-10-16T09:34:02;101019.25;;;20.14;80.75
17781;BME280;8498;52.516;13.790;2022-10-16T09:39:28;101017.31;;;20.24;80.05
17781;BME280;8498;52.516;13.790;2022-10-16T09:44:51;101020.66;;;20.26;79.45
17781;BME280;8498;52.516;13.790;2022-10-16T09:50:26;101017.91;;;20.18;78.76
17781;BME280;8498;52.516;13.790;2022-10-16T09:55:50;101026.94;;;20.52;77.91
17781;BME280;8498;52.516;13.790;2022-10-16T10:01:14;101035.47;;;20.66;77.35
17781;BME280;8498;52.516;13.790;2022-10-16T10:12:21;101044.59;;;20.73;76.06
17781;BME280;8498;52.516;13.790;2022-10-16T10:17:53;101050.53;;;20.76;74.56
17781;BME280;8498;52.516;13.790;2022-10-16T10:23:27;101046.66;;;20.87;74.63
17781;BME280;8498;52.516;13.790;2022-10-16T10:29:06;101060.91;;;20.97;74.73
17781;BME280;8498;52.516;13.790;2022-10-16T10:45:47;101065.38;;;21.14;71.01
17781;BME280;8498;52.516;13.790;2022-10-16T10:56:50;101075.59;;;20.95;70.79
17781;BME280;8498;52.516;13.790;2022-10-16T11:02:30;101074.16;;;21.58;69.38
17781;BME280;8498;52.516;13.790;2022-10-16T11:08:00;101068.41;;;21.78;68.02
17781;BME280;8498;52.516;13.790;2022-10-16T11:25:02;101101.41;;;21.97;67.67
17781;BME280;8498;52.516;13.790;2022-10-16T11:30:33;101088.38;;;22.33;64.08
17781;BME280;8498;52.516;13.790;2022-10-16T11:36:11;101077.34;;;22.67;63.07
17781;BME280;8498;52.516;13.790;2022-10-16T11:41:42;101073.25;;;22.63;63.15
17781;BME280;8498;52.516;13.790;2022-10-16T11:53:19;101086.53;;;22.26;61.86
17781;BME280;8498;52.516;13.790;2022-10-16T12:04:23;101083.72;;;23.30;57.40
17781;BME280;8498;52.516;13.790;2022-10-16T12:09:49;101088.69;;;23.80;55.65
17781;BME280;8498;52.516;13.790;2022-10-16T12:15:46;101093.66;;;23.46;56.39
17781;BME280;8498;52.516;13.790;2022-10-16T12:21:30;101111.66;;;22.91;57.68
17781;BME280;8498;52.516;13.790;2022-10-16T12:26:53;101113.75;;;22.57;58.29
17781;BME280;8498;52.516;13.790;2022-10-16T12:32:36;101124.44;;;22.50;58.21
17781;BME280;8498;52.516;13.790;2022-10-16T12:38:16;101111.88;;;22.65;56.47
17781;BME280;8498;52.516;13.790;2022-10-16T12:43:43;101116.84;;;23.48;54.51
17781;BME280;8498;52.516;13.790;2022-10-16T12:54:38;101135.94;;;24.17;51.50
17781;BME280;8498;52.516;13.790;2022-10-16T13:00:13;101141.38;;;24.17;50.65
17781;BME280;8498;52.516;13.790;2022-10-16T13:11:56;101138.94;;;23.76;49.73
17781;BME280;8498;52.516;13.790;2022-10-16T13:28:21;101155.06;;;23.30;52.02
17781;BME280;8498;52.516;13.790;2022-10-16T13:33:48;101174.16;;;22.90;51.68
17781;BME280;8498;52.516;13.790;2022-10-16T13:44:43;101181.97;;;22.60;52.46
17781;BME280;8498;52.516;13.790;2022-10-16T13:50:18;101177.88;;;22.64;53.01
17781;BME280;8498;52.516;13.790;2022-10-16T13:55:40;101184.31;;;22.47;52.53
17781;BME280;8498;52.516;13.790;2022-10-16T14:01:05;101173.84;;;22.60;53.12
17781;BME280;8498;52.516;13.790;2022-10-16T14:06:28;101170.06;;;23.02;52.01
17781;BME280;8498;52.516;13.790;2022-10-16T14:12:00;101174.63;;;23.10;51.50
17781;BME280;8498;52.516;13.790;2022-10-16T14:17:26;101185.09;;;23.21;50.80
17781;BME280;8498;52.516;13.790;2022-10-16T14:22:58;101183.69;;;23.33;51.01
17781;BME280;8498;52.516;13.790;2022-10-16T14:28:23;101204.19;;;23.27;50.95
17781;BME280;8498;52.516;13.790;2022-10-16T14:33:46;101205.25;;;23.18;50.76
17781;BME280;8498;52.516;13.790;2022-10-16T14:39:19;101208.19;;;22.84;51.31
17781;BME280;8498;52.516;13.790;2022-10-16T14:44:43;101200.75;;;22.70;52.30
17781;BME280;8498;52.516;13.790;2022-10-16T14:50:08;101208.34;;;22.58;52.20
17781;BME280;8498;52.516;13.790;2022-10-16T14:55:30;101216.13;;;22.45;52.25
17781;BME280;8498;52.516;13.790;2022-10-16T15:00:55;101214.44;;;22.36;53.16
17781;BME280;8498;52.516;13.790;2022-10-16T15:06:17;101223.25;;;22.38;53.71
17781;BME280;8498;52.516;13.790;2022-10-16T15:11:41;101235.25;;;22.27;53.61
17781;BME280;8498;52.516;13.790;2022-10-16T15:17:03;101232.38;;;22.21;55.41
17781;BME280;8498;52.516;13.790;2022-10-16T15:22:26;101244.00;;;22.13;56.63
17781;BME280;8498;52.516;13.790;2022-10-16T15:27:48;101245.50;;;22.00;57.78
17781;BME280;8498;52.516;13.790;2022-10-16T15:33:16;101254.06;;;21.87;58.96
17781;BME280;8498;52.516;13.790;2022-10-16T15:38:39;101263.75;;;21.64;60.24
17781;BME280;8498;52.516;13.790;2022-10-16T15:44:01;101258.31;;;21.30;61.48
17781;BME280;8498;52.516;13.790;2022-10-16T15:49:23;101268.63;;;21.08;62.86
17781;BME280;8498;52.516;13.790;2022-10-16T15:54:45;101279.56;;;20.81;63.76
17781;BME280;8498;52.516;13.790;2022-10-16T16:00:18;101299.94;;;20.58;65.02
17781;BME280;8498;52.516;13.790;2022-10-16T16:05:45;101294.44;;;20.32;65.62
17781;BME280;8498;52.516;13.790;2022-10-16T16:11:13;101305.09;;;20.06;66.18
17781;BME280;8498;52.516;13.790;2022-10-16T16:16:35;101325.06;;;19.86;67.18
17781;BME280;8498;52.516;13.790;2022-10-16T16:22:00;101323.59;;;19.64;68.02
17781;BME280;8498;52.516;13.790;2022-10-16T16:27:22;101328.16;;;19.44;68.51
17781;BME280;8498;52.516;13.790;2022-10-16T16:32:47;101336.03;;;19.18;68.88
17781;BME280;8498;52.516;13.790;2022-10-16T16:38:38;101355.44;;;19.02;69.32
17781;BME280;8498;52.516;13.790;2022-10-16T16:44:08;101366.34;;;18.82;69.23
17781;BME280;8498;52.516;13.790;2022-10-16T16:49:31;101368.31;;;18.60;70.25
17781;BME280;8498;52.516;13.790;2022-10-16T16:54:53;101370.53;;;18.46;70.51
17781;BME280;8498;52.516;13.790;2022-10-16T17:00:15;101382.41;;;18.33;70.65
17781;BME280;8498;52.516;13.790;2022-10-16T17:05:38;101405.00;;;18.21;70.97
17781;BME280;8498;52.516;13.790;2022-10-16T17:11:00;101414.72;;;18.03;71.45
17781;BME280;8498;52.516;13.790;2022-10-16T17:16:25;101416.31;;;17.85;72.15
17781;BME280;8498;52.516;13.790;2022-10-16T17:21:49;101433.88;;;17.68;72.58
17781;BME280;8498;52.516;13.790;2022-10-16T17:27:12;101431.38;;;17.55;72.85
17781;BME280;8498;52.516;13.790;2022-10-16T17:32:34;101449.78;;;17.39;73.56
17781;BME280;8498;52.516;13.790;2022-10-16T17:37:57;101448.31;;;17.35;73.16
17781;BME280;8498;52.516;13.790;2022-10-16T17:43:19;101467.03;;;17.25;73.54
17781;BME280;8498;52.516;13.790;2022-10-16T17:48:44;101481.75;;;17.10;73.77
17781;BME280;8498;52.516;13.790;2022-10-16T17:54:07;101484.25;;;17.02;73.33
17781;BME280;8498;52.516;13.790;2022-10-16T17:59:30;101489.13;;;16.97;73.22
17781;BME280;8498;52.516;13.790;2022-10-16T18:04:53;101488.44;;;16.73;74.11
17781;BME280;8498;52.516;13.790;2022-10-16T18:10:17;101488.66;;;16.59;74.36
17781;BME280;8498;52.516;13.790;2022-10-16T18:15:43;101495.75;;;16.48;74.46
17781;BME280;8498;52.516;13.790;2022-10-16T18:21:08;101499.75;;;16.32;75.03
17781;BME280;8498;52.516;13.790;2022-10-16T18:26:32;101508.19;;;16.27;75.21
17781;BME280;8498;52.516;13.790;2022-10-16T18:31:55;101511.22;;;16.23;74.78
17781;BME280;8498;52.516;13.790;2022-10-16T18:37:18;101506.34;;;16.17;74.75
17781;BME280;8498;52.516;13.790;2022-10-16T18:42:41;101519.50;;;16.08;74.99
17781;BME280;8498;52.516;13.790;2022-10-16T18:48:06;101524.56;;;16.00;75.27
17781;BME280;8498;52.516;13.790;2022-10-16T18:53:29;101540.63;;;15.89;75.44
17781;BME280;8498;52.516;13.790;2022-10-16T18:58:52;101534.25;;;15.79;75.62
17781;BME280;8498;52.516;13.790;2022-10-16T19:04:15;101552.97;;;15.68;75.64
17781;BME280;8498;52.516;13.790;2022-10-16T19:09:38;101566.09;;;15.60;75.58
17781;BME280;8498;52.516;13.790;2022-10-16T19:15:01;101556.78;;;15.53;75.60
17781;BME280;8498;52.516;13.790;2022-10-16T19:20:23;101547.22;;;15.37;76.48
17781;BME280;8498;52.516;13.790;2022-10-16T19:25:46;101547.91;;;15.28;76.81
17781;BME280;8498;52.516;13.790;2022-10-16T19:31:11;101568.53;;;15.15;77.35
17781;BME280;8498;52.516;13.790;2022-10-16T19:36:35;101566.75;;;15.03;78.16
17781;BME280;8498;52.516;13.790;2022-10-16T19:41:59;101569.75;;;14.98;78.14
17781;BME280;8498;52.516;13.790;2022-10-16T19:47:21;101557.78;;;14.91;78.56
17781;BME280;8498;52.516;13.790;2022-10-16T19:52:44;101568.88;;;14.98;78.32
17781;BME280;8498;52.516;13.790;2022-10-16T19:58:07;101574.19;;;15.11;77.94
17781;BME280;8498;52.516;13.790;2022-10-16T20:03:29;101592.84;;;15.12;77.88
17781;BME280;8498;52.516;13.790;2022-10-16T20:08:53;101592.75;;;15.01;78.67
17781;BME280;8498;52.516;13.790;2022-10-16T20:14:15;101598.09;;;15.01;79.14
17781;BME280;8498;52.516;13.790;2022-10-16T20:19:37;101611.28;;;15.04;78.51
17781;BME280;8498;52.516;13.790;2022-10-16T20:25:00;101614.72;;;14.93;78.56
17781;BME280;8498;52.516;13.790;2022-10-16T20:30:25;101629.91;;;14.93;78.35
17781;BME280;8498;52.516;13.790;2022-10-16T20:35:49;101631.84;;;14.91;78.05
17781;BME280;8498;52.516;13.790;2022-10-16T20:41:12;101640.22;;;14.74;78.38
17781;BME280;8498;52.516;13.790;2022-10-16T20:46:35;101637.09;;;14.67;78.49
17781;BME280;8498;52.516;13.790;2022-10-16T20:51:57;101653.13;;;14.67;78.92
17781;BME280;8498;52.516;13.790;2022-10-16T20:57:19;101656.47;;;14.71;77.81
17781;BME280;8498;52.516;13.790;2022-10-16T21:02:42;101655.06;;;14.65;77.91
17781;BME280;8498;52.516;13.790;2022-10-16T21:08:04;101652.16;;;14.55;78.74
17781;BME280;8498;52.516;13.790;2022-10-16T21:13:28;101654.31;;;14.50;79.01
17781;BME280;8498;52.516;13.790;2022-10-16T21:18:53;101646.81;;;14.55;78.98
17781;BME280;8498;52.516;13.790;2022-10-16T21:24:16;101660.09;;;14.57;79.00
17781;BME280;8498;52.516;13.790;2022-10-16T21:29:38;101652.94;;;14.57;79.17
17781;BME280;8498;52.516;13.790;2022-10-16T21:35:01;101657.50;;;14.55;79.42
17781;BME280;8498;52.516;13.790;2022-10-16T21:40:23;101664.81;;;14.53;79.42
17781;BME280;8498;52.516;13.790;2022-10-16T21:45:46;101670.47;;;14.61;78.95
17781;BME280;8498;52.516;13.790;2022-10-16T21:51:10;101670.47;;;14.49;79.76
17781;BME280;8498;52.516;13.790;2022-10-16T21:56:33;101704.16;;;14.51;80.20
17781;BME280;8498;52.516;13.790;2022-10-16T22:01:55;101702.44;;;14.50;80.22
17781;BME280;8498;52.516;13.790;2022-10-16T22:07:18;101707.38;;;14.56;80.27
17781;BME280;8498;52.516;13.790;2022-10-16T22:12:40;101709.09;;;14.57;80.47
17781;BME280;8498;52.516;13.790;2022-10-16T22:18:03;101719.97;;;14.54;80.38
17781;BME280;8498;52.516;13.790;2022-10-16T22:23:25;101694.94;;;14.55;80.47
17781;BME280;8498;52.516;13.790;2022-10-16T22:28:47;101698.59;;;14.54;80.32
17781;BME280;8498;52.516;13.790;2022-10-16T22:34:12;101678.19;;;14.53;80.51
17781;BME280;8498;52.516;13.790;2022-10-16T22:39:34;101686.41;;;14.50;80.98
17781;BME280;8498;52.516;13.790;2022-10-16T22:44:57;101681.06;;;14.50;80.64
17781;BME280;8498;52.516;13.790;2022-10-16T22:50:19;101674.41;;;14.43;80.40
17781;BME280;8498;52.516;13.790;2022-10-16T22:55:41;101696.03;;;14.40;80.45
17781;BME280;8498;52.516;13.790;2022-10-16T23:01:25;101703.44;;;14.35;80.15
17781;BME280;8498;52.516;13.790;2022-10-16T23:06:48;101709.03;;;14.32;80.15
17781;BME280;8498;52.516;13.790;2022-10-16T23:12:10;101702.16;;;14.28;80.61
17781;BME280;8498;52.516;13.790;2022-10-16T23:17:32;101710.69;;;14.33;80.64
17781;BME280;8498;52.516;13.790;2022-10-16T23:22:54;101712.66;;;14.31;81.43
17781;BME280;8498;52.516;13.790;2022-10-16T23:28:17;101724.63;;;14.38;81.34
17781;BME280;8498;52.516;13.790;2022-10-16T23:33:40;101715.09;;;14.34;81.89
17781;BME280;8498;52.516;13.790;2022-10-16T23:39:02;101708.19;;;14.44;82.32
17781;BME280;8498;52.516;13.790;2022-10-16T23:44:25;101704.06;;;14.53;82.10
17781;BME280;8498;52.516;13.790;2022-10-16T23:49:47;101720.63;;;14.58;82.03
17781;BME280;8498;52.516;13.790;2022-10-16T23:55:09;101725.13;;;14.57;82.38
